地図

経路データ

SID SEASON NUMBER BASIN SUBBASIN NAME ISO_TIME NATURE LAT LON WMO_WIND WMO_PRES WMO_AGENCY TRACK_TYPE DIST2LAND LANDFALL IFLAG USA_AGENCY USA_ATCF_ID USA_LAT USA_LON USA_RECORD USA_STATUS USA_WIND USA_PRES USA_SSHS USA_R34_NE USA_R34_SE USA_R34_SW USA_R34_NW USA_R50_NE USA_R50_SE USA_R50_SW USA_R50_NW USA_R64_NE USA_R64_SE USA_R64_SW USA_R64_NW USA_POCI USA_ROCI USA_RMW USA_EYE TOKYO_LAT TOKYO_LON TOKYO_GRADE TOKYO_WIND TOKYO_PRES TOKYO_R50_DIR TOKYO_R50_LONG TOKYO_R50_SHORT TOKYO_R30_DIR TOKYO_R30_LONG TOKYO_R30_SHORT TOKYO_LAND CMA_LAT CMA_LON CMA_CAT CMA_WIND CMA_PRES HKO_LAT HKO_LON HKO_CAT HKO_WIND HKO_PRES NEWDELHI_LAT NEWDELHI_LON NEWDELHI_GRADE NEWDELHI_WIND NEWDELHI_PRES NEWDELHI_CI NEWDELHI_DP NEWDELHI_POCI REUNION_LAT REUNION_LON REUNION_TYPE REUNION_WIND REUNION_PRES REUNION_TNUM REUNION_CI REUNION_RMW REUNION_R34_NE REUNION_R34_SE REUNION_R34_SW REUNION_R34_NW REUNION_R50_NE REUNION_R50_SE REUNION_R50_SW REUNION_R50_NW REUNION_R64_NE REUNION_R64_SE REUNION_R64_SW REUNION_R64_NW BOM_LAT BOM_LON BOM_TYPE BOM_WIND BOM_PRES BOM_TNUM BOM_CI BOM_RMW BOM_R34_NE BOM_R34_SE BOM_R34_SW BOM_R34_NW BOM_R50_NE BOM_R50_SE BOM_R50_SW BOM_R50_NW BOM_R64_NE BOM_R64_SE BOM_R64_SW BOM_R64_NW BOM_ROCI BOM_POCI BOM_EYE BOM_POS_METHOD BOM_PRES_METHOD NADI_LAT NADI_LON NADI_CAT NADI_WIND NADI_PRES WELLINGTON_LAT WELLINGTON_LON WELLINGTON_WIND WELLINGTON_PRES DS824_LAT DS824_LON DS824_STAGE DS824_WIND DS824_PRES TD9636_LAT TD9636_LON TD9636_STAGE TD9636_WIND TD9636_PRES TD9635_LAT TD9635_LON TD9635_WIND TD9635_PRES TD9635_ROCI NEUMANN_LAT NEUMANN_LON NEUMANN_CLASS NEUMANN_WIND NEUMANN_PRES MLC_LAT MLC_LON MLC_CLASS MLC_WIND MLC_PRES USA_GUST BOM_GUST BOM_GUST_PER REUNION_GUST REUNION_GUST_PER USA_SEAHGT USA_SEARAD_NE USA_SEARAD_SE USA_SEARAD_SW USA_SEARAD_NW STORM_SPEED STORM_DIR
1867011S11072 1867 1 SI MM NOT_NAMED 1867-01-11 06:00:00 NR -10.8000 72.0000 reunion main 1851 1835 _____O____O___ -1 -10.5000 72.3000 99 9.90000 -11.1000 71.7000 7 3 226
1867011S11072 1867 1 SI MM NOT_NAMED 1867-01-11 09:00:00 NR -10.9066 71.8894 main 1835 1820 _____P____P___ -1 -10.5834 72.2224 99 -11.2298 71.5564 7 3 225
1867011S11072 1867 1 SI MM NOT_NAMED 1867-01-11 12:00:00 NR -11.0124 71.7820 main 1820 1804 _____P____P___ -1 -10.6672 72.1439 99 -11.3576 71.4202 7 3 224
1867011S11072 1867 1 SI MM NOT_NAMED 1867-01-11 15:00:00 NR -11.1167 71.6812 main 1804 1789 _____P____P___ -1 -10.7518 72.0634 99 -11.4816 71.2989 7 3 222
1867011S11072 1867 1 SI MM NOT_NAMED 1867-01-11 18:00:00 NR -11.2187 71.5901 main 1789 1774 _____P____O___ -1 -10.8375 71.9802 99 -11.6000 71.2000 7 3 220
1867011S11072 1867 1 SI MM NOT_NAMED 1867-01-11 21:00:00 NR -11.3188 71.5099 main 1774 1758 _____P____P___ -1 -10.9248 71.8931 99 -11.7127 71.1267 7 3 217
1867011S11072 1867 1 SI MM NOT_NAMED 1867-01-12 00:00:00 NR -11.4207 71.4331 main 1758 1752 _____P____P___ -1 -11.0140 71.8014 99 -11.8274 71.0648 7 3 217
1867011S11072 1867 1 SI MM NOT_NAMED 1867-01-12 03:00:00 NR -11.5295 71.3497 main 1743 1737 _____P____P___ -1 -11.1056 71.7040 99 -11.9534 70.9954 7 3 219
1867011S11072 1867 1 SI MM NOT_NAMED 1867-01-12 06:00:00 NR -11.6500 71.2500 reunion main 1737 1706 _____O____O___ -1 -11.2000 71.6000 99 9.90000 -12.1000 70.9000 7 3 222
1867011S11072 1867 1 SI MM NOT_NAMED 1867-01-12 09:00:00 NR -11.7840 71.1173 main 1706 1691 _____P____P___ -1 -11.2977 71.4889 99 -12.2704 70.7457 7 4 225
1867011S11072 1867 1 SI MM NOT_NAMED 1867-01-12 12:00:00 NR -11.9313 70.9682 main 1691 1660 _____P____P___ -1 -11.4000 71.3714 99 -12.4626 70.5651 7 4 224
1867011S11072 1867 1 SI MM NOT_NAMED 1867-01-12 15:00:00 NR -12.0911 70.8128 main 1660 1638 _____P____P___ -1 -11.5086 71.2487 99 -12.6735 70.3769 7 4 222
1867011S11072 1867 1 SI MM NOT_NAMED 1867-01-12 18:00:00 NR -12.2625 70.6611 main 1638 1614 _____P____O___ -1 -11.6251 71.1222 99 -12.9000 70.2000 7 5 218
1867011S11072 1867 1 SI MM NOT_NAMED 1867-01-12 21:00:00 NR -12.4473 70.5267 main 1614 1593 _____P____P___ -1 -11.7508 70.9928 99 -13.1437 70.0606 7 5 214
1867011S11072 1867 1 SI MM NOT_NAMED 1867-01-13 00:00:00 NR -12.6437 70.3984 main 1593 1571 _____P____P___ -1 -11.8875 70.8619 99 -13.3999 69.9349 7 5 212
1867011S11072 1867 1 SI MM NOT_NAMED 1867-01-13 03:00:00 NR -12.8465 70.2737 main 1571 1550 _____P____P___ -1 -12.0367 70.7306 99 -13.6562 69.8168 7 5 210
1867011S11072 1867 1 SI MM NOT_NAMED 1867-01-13 06:00:00 NR -13.0500 70.1500 reunion main 1550 1520 _____O____O___ -1 -12.2000 70.6000 99 9.90000 -13.9000 69.7000 7 5 211
1867011S11072 1867 1 SI MM NOT_NAMED 1867-01-13 09:00:00 NR -13.2471 70.0229 main 1520 1499 _____P____P___ -1 -12.3799 70.4750 99 -14.1144 69.5709 7 5 212
1867011S11072 1867 1 SI MM NOT_NAMED 1867-01-13 12:00:00 NR -13.4448 69.8962 main 1499 1478 _____P____P___ -1 -12.5746 70.3500 99 -14.3150 69.4424 7 5 212
1867011S11072 1867 1 SI MM NOT_NAMED 1867-01-13 15:00:00 NR -13.6448 69.7713 main 1478 1457 _____P____P___ -1 -12.7814 70.2249 99 -14.5081 69.3177 7 5 211
1867011S11072 1867 1 SI MM NOT_NAMED 1867-01-13 18:00:00 NR -13.8487 69.6500 main 1448 1427 _____P____O___ -1 -12.9974 70.0999 99 -14.7000 69.2000 7 5 211
1867011S11072 1867 1 SI MM NOT_NAMED 1867-01-13 21:00:00 NR -14.0357 69.5337 main 1427 1407 _____P____P___ -1 -13.2201 69.9749 99 -14.8512 69.0926 7 4 211
1867011S11072 1867 1 SI MM NOT_NAMED 1867-01-14 00:00:00 NR -14.2283 69.4210 main 1407 1386 _____P____P___ -1 -13.4465 69.8499 99 -15.0100 68.9921 7 5 208
1867011S11072 1867 1 SI MM NOT_NAMED 1867-01-14 03:00:00 NR -14.4439 69.3103 main 1386 1361 _____P____P___ -1 -13.6741 69.7249 99 -15.2138 68.8956 7 5 204
1867011S11072 1867 1 SI MM NOT_NAMED 1867-01-14 06:00:00 NR -14.7000 69.2000 reunion main 1361 1335 _____O____O___ -1 -13.9000 69.6000 99 9.90000 -15.5000 68.8000 7 6 203
1867011S11072 1867 1 SI MM NOT_NAMED 1867-01-14 09:00:00 NR -14.9942 69.0649 main 1335 1301 _____P____P___ -1 -14.0705 69.4577 99 -15.8950 68.7026 7 7 202
1867011S11072 1867 1 SI MM NOT_NAMED 1867-01-14 12:00:00 NR -15.3268 68.9309 main 1301 1271 _____P____P___ -1 -14.2359 69.3133 99 -16.3801 68.6032 7 7 200
1867011S11072 1867 1 SI MM NOT_NAMED 1867-01-14 15:00:00 NR -15.6816 68.8104 main 1271 1266 _____P____P___ -1 -14.4048 69.1704 99 -16.9251 68.5022 7 5 198
1867011S11072 1867 1 SI MM NOT_NAMED 1867-01-14 18:00:00 NR -15.8346 68.7614 main 1266 1252 _____P____O___ -1 -14.5855 69.0325 99 -17.5000 68.4000 7 2 206
1867011S11072 1867 1 SI MM NOT_NAMED 1867-01-14 21:00:00 NR -15.8451 68.7262 main 1257 1257 _____P________ -1 -14.7868 68.9030 99 7 1 338
1867011S11072 1867 1 SI MM NOT_NAMED 1867-01-15 00:00:00 NR -15.6977 68.7087 main 1262 1262 _____P________ -1 -15.0173 68.7854 99 7 6 356
1867011S11072 1867 1 SI MM NOT_NAMED 1867-01-15 03:00:00 NR -15.2854 68.6833 main 1282 1257 _____P________ -1 -15.2854 68.6833 99 7 1 313
1867011S11072 1867 1 SI MM NOT_NAMED 1867-01-15 06:00:00 NR -15.6000 68.6000 reunion main 1257 1228 _____O________ -1 -15.6000 68.6000 99 9.90000 7 195
1867011S11072 1867 1 SI MM NOT_NAMED 1867-01-15 09:00:00 NR -15.9811 68.4887 main 1228 1200 _____P________ -1 -15.9811 68.4887 99 8 194
1867011S11072 1867 1 SI MM NOT_NAMED 1867-01-15 12:00:00 NR -16.4081 68.3893 main 1200 1173 _____P________ -1 -16.4081 68.3893 99 9 191
1867011S11072 1867 1 SI MM NOT_NAMED 1867-01-15 15:00:00 NR -16.8732 68.3097 main 1169 1154 _____P________ -1 -16.8732 68.3097 99 10 188
1867011S11072 1867 1 SI MM NOT_NAMED 1867-01-15 18:00:00 NR -17.3687 68.2581 main 1151 1125 _____P________ -1 -17.3687 68.2581 99 10 184
1867011S11072 1867 1 SI MM NOT_NAMED 1867-01-15 21:00:00 NR -17.8868 68.2429 main 1125 1119 _____P________ -1 -17.8868 68.2429 99 11 180
1867011S11072 1867 1 SI MM NOT_NAMED 1867-01-16 00:00:00 NR -18.4199 68.2724 main 1121 1110 _____P________ -1 -18.4199 68.2724 99 11 174
1867011S11072 1867 1 SI MM NOT_NAMED 1867-01-16 03:00:00 NR -18.9602 68.3552 main 1119 1114 _____P________ -1 -18.9602 68.3552 99 11 169
1867011S11072 1867 1 SI MM NOT_NAMED 1867-01-16 06:00:00 NR -19.5000 68.5000 reunion main 1122 1120 _____O________ -1 -19.5000 68.5000 99 9.90000 12 161
1867011S11072 1867 1 SI MM NOT_NAMED 1867-01-16 09:00:00 NR -20.0679 68.7665 main 1147 1147 _____P________ -1 -20.0679 68.7665 99 13 154
1867011S11072 1867 1 SI MM NOT_NAMED 1867-01-16 12:00:00 NR -20.6480 69.1044 main 1177 1177 _____P________ -1 -20.6480 69.1044 99 13 150
1867011S11072 1867 1 SI MM NOT_NAMED 1867-01-16 15:00:00 NR -21.2260 69.4940 main 1220 1220 _____P________ -1 -21.2260 69.4940 99 14 146
1867011S11072 1867 1 SI MM NOT_NAMED 1867-01-16 18:00:00 NR -21.7881 69.9154 main 1266 1266 _____P________ -1 -21.7881 69.9154 99 14 144
1867011S11072 1867 1 SI MM NOT_NAMED 1867-01-16 21:00:00 NR -22.3201 70.3480 main 1313 1313 _____P________ -1 -22.3201 70.3480 99 13 142
1867011S11072 1867 1 SI MM NOT_NAMED 1867-01-17 00:00:00 NR -22.8083 70.7707 main 1372 1372 _____P________ -1 -22.8083 70.7707 99 12 141
1867011S11072 1867 1 SI MM NOT_NAMED 1867-01-17 03:00:00 NR -23.2394 71.1620 main 1420 1420 _____P________ -1 -23.2394 71.1620 99 10 140
1867011S11072 1867 1 SI MM NOT_NAMED 1867-01-17 06:00:00 NR -23.6000 71.5000 reunion main 1459 1459 _____O________ -1 -23.6000 71.5000 99 9.90000 9 139
1867011S11072 1867 1 SI MM NOT_NAMED 1867-01-17 09:00:00 NR -23.8811 71.7678 main 1496 1496 _____P________ -1 -23.8811 71.7678 99 7 139
1867011S11072 1867 1 SI MM NOT_NAMED 1867-01-17 12:00:00 NR -24.0894 71.9690 main 1521 1521 _____P________ -1 -24.0894 71.9690 99 5 139
1867011S11072 1867 1 SI MM NOT_NAMED 1867-01-17 15:00:00 NR -24.2357 72.1127 main 1533 1533 _____P________ -1 -24.2357 72.1127 99 3 138
1867011S11072 1867 1 SI MM NOT_NAMED 1867-01-17 18:00:00 NR -24.3303 72.2082 main 1546 1546 _____P________ -1 -24.3303 72.2082 99 2 137
1867011S11072 1867 1 SI MM NOT_NAMED 1867-01-17 21:00:00 NR -24.3837 72.2651 main 1558 1558 _____P________ -1 -24.3837 72.2651 99 1 133
1867011S11072 1867 1 SI MM NOT_NAMED 1867-01-18 00:00:00 NR -24.4063 72.2929 main 1558 1558 _____P________ -1 -24.4063 72.2929 99 0 128
1867011S11072 1867 1 SI MM NOT_NAMED 1867-01-18 03:00:00 NR -24.4083 72.3013 main 1558 1558 _____P________ -1 -24.4083 72.3013 99 0 0
1867011S11072 1867 1 SI MM NOT_NAMED 1867-01-18 06:00:00 NR -24.4000 72.3000 reunion main 1558 _____O________ -1 -24.4000 72.3000 99 9.90000 0 0

IBTrACS Databaseについて

本データベースは、米国NOAAが公開する1842年以降の世界の熱帯低気圧のベストトラックデータアーカイブInternational Best Track Archive for Climate Stewardship (IBTrACS)を、ウェブで閲覧しやすい形式に変換したものです。

最終更新日:2021-10-08